Time;durP1;ratioP1;P1;durP2;ratioP2;P2;SDS_P1;SDS_P2;PMS_P1;PMS_P2;Temp;Humidity;BMP_temperature;BMP_pressure;BME280_temperature;BME280_humidity;BME280_pressure;Samples;Min_cycle;Max_cycle;Signal;HPM_P1;HPM_P2
2024/01/08 00:00:21;;;;;;;7.28;4.50;;;;;;;-144.05;58.74;57127.09;5050388;28;20078;-83
2024/01/08 00:02:47;;;;;;;5.90;3.60;;;;;;;-144.05;58.36;57158.94;5049882;28;20597;-83
2024/01/08 00:05:17;;;;;;;6.30;3.85;;;;;;;-144.05;58.81;57158.94;5067629;28;20029;-82
2024/01/08 00:07:43;;;;;;;8.98;4.07;;;;;;;-144.05;58.28;57120.72;5050608;28;20029;-83
2024/01/08 00:10:10;;;;;;;6.05;3.90;;;;;;;-144.05;58.31;57107.97;5051234;28;20025;-82
2024/01/08 00:12:36;;;;;;;5.90;3.33;;;;;;;-144.05;58.51;57158.94;5051930;28;20041;-81
2024/01/08 00:15:03;;;;;;;8.43;4.00;;;;;;;-144.05;58.36;57158.94;5055560;28;20025;-84
2024/01/08 00:17:29;;;;;;;6.50;3.42;;;;;;;-144.05;58.36;57154.69;5077929;28;20044;-82
2024/01/08 00:19:55;;;;;;;6.63;4.00;;;;;;;-144.05;58.57;57154.69;5054232;28;20144;-82
2024/01/08 00:22:21;;;;;;;6.95;4.05;;;;;;;-144.05;58.05;57127.09;5053880;28;20040;-82
2024/01/08 00:24:48;;;;;;;10.48;4.25;;;;;;;-144.05;58.17;57122.84;5059470;28;20039;-81
2024/01/08 00:27:14;;;;;;;7.30;3.78;;;;;;;-144.05;58.44;57103.72;5052975;28;20041;-83
2024/01/08 00:29:40;;;;;;;5.85;3.97;;;;;;;-144.05;58.26;57144.06;5062740;28;20036;-81
2024/01/08 00:32:06;;;;;;;7.30;3.92;;;;;;;-144.05;58.44;57161.06;5066391;28;20052;-82
2024/01/08 00:34:33;;;;;;;7.22;4.35;;;;;;;-144.05;58.33;57144.06;5049727;28;20069;-82
2024/01/08 00:36:59;;;;;;;7.18;3.80;;;;;;;-144.05;58.48;57127.09;5050778;28;20033;-79
2024/01/08 00:39:27;;;;;;;6.43;4.05;;;;;;;-144.05;58.83;57135.56;5068170;28;20067;-82
2024/01/08 00:41:53;;;;;;;8.73;4.20;;;;;;;-144.05;58.67;57112.22;5049425;28;20036;-81
2024/01/08 00:44:19;;;;;;;7.53;4.30;;;;;;;-144.05;59.45;57124.97;5048930;28;20044;-81
2024/01/08 00:46:46;;;;;;;8.95;3.95;;;;;;;-144.05;59.56;57133.44;5050595;28;20071;-82
2024/01/08 00:49:12;;;;;;;7.50;4.45;;;;;;;-144.05;59.41;57141.94;5049256;28;20124;-83
2024/01/08 00:51:38;;;;;;;6.25;3.83;;;;;;;-144.05;59.41;57097.34;5073500;28;20044;-81
2024/01/08 00:54:05;;;;;;;7.45;4.30;;;;;;;-144.05;60.65;57167.44;5050226;28;20529;-81
2024/01/08 00:56:31;;;;;;;6.97;4.03;;;;;;;-144.05;60.23;57148.31;5074026;28;20397;-80
2024/01/08 00:58:57;;;;;;;8.57;5.35;;;;;;;-144.05;60.96;57169.56;5052357;28;20033;-80
2024/01/08 01:01:25;;;;;;;7.93;4.97;;;;;;;-144.05;60.62;57120.72;5052320;28;20072;-80
2024/01/08 01:03:51;;;;;;;6.60;4.35;;;;;;;-144.05;60.69;57148.31;5052546;28;20040;-81
2024/01/08 01:06:21;;;;;;;6.90;4.43;;;-3.40;99.90;;;-144.05;60.92;57139.81;5053673;28;20029;-79
2024/01/08 01:08:48;;;;;;;7.35;4.55;;;;;;;-144.05;61.22;57141.94;5053465;28;20215;-81
2024/01/08 01:11:16;;;;;;;6.72;4.78;;;;;;;-144.05;61.74;57156.81;5052104;28;20032;-80
2024/01/08 01:13:42;;;;;;;9.27;5.65;;;;;;;-144.05;61.99;57169.56;5049045;28;20102;-81
2024/01/08 01:16:08;;;;;;;6.80;4.60;;;;;;;-144.05;62.03;57146.19;5068634;28;20040;-79
2024/01/08 01:18:35;;;;;;;7.70;5.28;;;;;;;-144.05;61.49;57141.94;5051981;28;20037;-81
2024/01/08 01:21:01;;;;;;;6.32;4.80;;;;;;;-144.05;61.92;57180.19;5068776;28;20033;-78
2024/01/08 01:23:28;;;;;;;6.55;4.55;;;;;;;-144.05;61.94;57158.94;5053246;28;20033;-79
2024/01/08 01:25:54;;;;;;;7.82;4.90;;;;;;;-144.05;62.17;57127.09;5053571;28;20045;-82
2024/01/08 01:28:20;;;;;;;7.72;4.95;;;;;;;-144.05;62.13;57190.81;5063677;28;20025;-80
2024/01/08 01:30:46;;;;;;;8.20;4.75;;;;;;;-144.05;62.67;57163.19;5054659;28;20025;-81
2024/01/08 01:33:13;;;;;;;11.07;5.55;;;;;;;-144.05;62.35;57141.94;5053394;28;20036;-79
2024/01/08 01:35:39;;;;;;;11.10;5.35;;;;;;;-144.05;62.57;57120.72;5052009;28;20133;-79
2024/01/08 01:38:05;;;;;;;12.57;5.50;;;;;;;-144.05;62.77;57129.22;5053312;28;20176;-80
2024/01/08 01:40:31;;;;;;;11.80;5.97;;;;;;;-144.05;63.38;57156.81;5053104;28;20048;-80
2024/01/08 01:42:57;;;;;;;7.63;5.30;;;;;;;-144.05;62.99;57178.06;5051893;28;20032;-79
2024/01/08 01:45:24;;;;;;;10.48;5.70;;;;;;;-144.05;63.38;57139.81;5075772;28;20064;-80
2024/01/08 01:47:54;;;;;;;9.43;5.13;;;0.90;99.90;;;-144.05;63.14;57124.97;5051704;28;20447;-80
2024/01/08 01:50:24;;;;;;;10.38;5.95;;;;;;;-144.05;63.09;57144.06;5052952;28;20029;-81
2024/01/08 01:52:51;;;;;;;11.40;5.05;;;;;;;-144.05;63.38;57146.19;5051376;28;20138;-79
2024/01/08 01:55:18;;;;;;;10.80;5.60;;;;;;;-144.05;62.97;57139.81;5053448;28;20033;-80
2024/01/08 01:57:46;;;;;;;7.63;4.93;;;1.00;99.90;;;-144.05;62.90;57137.69;5053163;28;20032;-81
2024/01/08 02:00:14;;;;;;;9.48;5.07;;;;;;;-144.05;62.97;57141.94;5051755;28;20517;-79
2024/01/08 02:02:42;;;;;;;12.93;6.43;;;1.80;99.90;;;-144.05;63.11;57124.97;5052622;28;20076;-81
2024/01/08 02:05:11;;;;;;;9.65;4.97;;;;;;;-144.05;62.91;57116.47;5053033;28;20048;-79
2024/01/08 02:07:40;;;;;;;12.60;5.80;;;1.30;99.90;;;-144.05;63.25;57165.31;5052815;28;20045;-80
2024/01/08 02:10:07;;;;;;;7.28;5.15;;;;;;;-144.05;63.06;57139.81;5052582;28;20118;-82
2024/01/08 02:12:33;;;;;;;12.27;5.90;;;;;;;-144.05;63.07;57127.09;5068143;28;20414;-81
2024/01/08 02:15:04;;;;;;;10.45;5.47;;;;;;;-144.05;63.54;57137.69;5052757;28;20037;-83
2024/01/08 02:17:31;;;;;;;12.13;5.97;;;;;;;-144.05;63.70;57124.97;5066519;28;20034;-82
2024/01/08 02:19:57;;;;;;;10.18;5.63;;;;;;;-144.05;63.48;57120.72;5052587;28;20055;-82
2024/01/08 02:22:23;;;;;;;14.13;5.63;;;;;;;-144.05;63.46;57135.56;5050846;28;20037;-81
2024/01/08 02:24:50;;;;;;;11.15;5.78;;;;;;;-144.05;63.50;57112.22;5067422;28;20552;-80
2024/01/08 02:27:16;;;;;;;14.95;6.85;;;;;;;-144.05;63.45;57156.81;5052671;28;20059;-81
2024/01/08 02:29:43;;;;;;;10.90;5.57;;;;;;;-144.05;64.10;57161.06;5052031;28;20033;-82
2024/01/08 02:32:10;;;;;;;9.20;5.93;;;;;;;-144.05;63.52;57120.72;5052261;28;20032;-80
2024/01/08 02:34:37;;;;;;;10.18;5.25;;;;;;;-144.05;63.89;57167.44;5074296;28;20455;-80
2024/01/08 02:37:03;;;;;;;8.93;5.68;;;;;;;-144.05;63.67;57103.72;5052349;28;20120;-82
2024/01/08 02:39:29;;;;;;;9.60;5.88;;;;;;;-144.05;63.53;57107.97;5074410;28;20132;-81
2024/01/08 02:41:55;;;;;;;10.68;5.60;;;;;;;-144.05;63.45;57156.81;5050825;28;20040;-80
2024/01/08 02:44:22;;;;;;;8.43;5.72;;;;;;;-144.05;63.77;57135.56;5050460;28;20064;-81
2024/01/08 02:46:48;;;;;;;12.88;5.93;;;;;;;-144.05;64.26;57124.97;5055528;28;20037;-79
2024/01/08 02:49:14;;;;;;;10.00;5.47;;;;;;;-144.05;64.21;57144.06;5066845;28;20037;-80
2024/01/08 02:51:41;;;;;;;9.98;5.65;;;;;;;-144.05;64.23;57154.69;5050164;28;20037;-80
2024/01/08 02:54:07;;;;;;;11.18;5.80;;;;;;;-144.05;64.09;57141.94;5051554;28;20626;-82
2024/01/08 02:56:33;;;;;;;12.55;6.10;;;;;;;-144.05;63.92;57114.34;5073197;28;20585;-82
2024/01/08 02:59:05;;;;;;;9.55;5.65;;;;;;;-144.05;64.08;57131.31;5050378;28;20103;-83
2024/01/08 03:01:33;;;;;;;9.05;5.72;;;;;;;-144.05;63.85;57148.31;5073591;28;20029;-81
2024/01/08 03:03:59;;;;;;;8.52;5.75;;;;;;;-144.05;63.91;57163.19;5050156;28;20393;-81
2024/01/08 03:06:25;;;;;;;8.80;6.03;;;;;;;-144.05;64.36;57141.94;5050293;28;20113;-79
2024/01/08 03:08:51;;;;;;;12.48;6.05;;;;;;;-144.05;64.39;57156.81;5051551;28;20029;-80
2024/01/08 03:11:18;;;;;;;9.77;6.13;;;;;;;-144.05;64.25;57167.44;5055040;28;20080;-82
2024/01/08 03:13:44;;;;;;;9.85;6.03;;;;;;;-144.05;64.08;57154.69;5050303;28;20427;-83
2024/01/08 03:16:10;;;;;;;11.15;6.70;;;;;;;-144.05;64.71;57148.31;5066792;28;20040;-78
2024/01/08 03:18:37;;;;;;;10.57;6.32;;;;;;;-144.05;64.43;57133.44;5052276;28;20622;-82
2024/01/08 03:21:03;;;;;;;9.48;5.63;;;;;;;-144.05;64.33;57141.94;5051076;28;20509;-82
2024/01/08 03:23:30;;;;;;;9.75;6.30;;;;;;;-144.05;64.65;57148.31;5073095;28;20029;-81
2024/01/08 03:25:56;;;;;;;9.55;6.47;;;;;;;-144.05;64.85;57150.44;5049493;28;20047;-80
2024/01/08 03:28:22;;;;;;;13.63;6.28;;;;;;;-144.05;65.44;57144.06;5072563;28;20040;-79
2024/01/08 03:30:48;;;;;;;11.43;6.35;;;;;;;-144.05;65.14;57120.72;5049986;28;20052;-78
2024/01/08 03:33:14;;;;;;;11.88;7.22;;;;;;;-144.05;65.35;57120.72;5048700;28;20053;-79
2024/01/08 03:35:43;;;;;;;10.57;7.05;;;;;;;-144.05;65.69;57135.56;5049853;28;20115;-82
2024/01/08 03:38:09;;;;;;;13.77;7.10;;;;;;;-144.05;65.62;57154.69;5066628;28;20057;-82
2024/01/08 03:40:35;;;;;;;12.43;7.32;;;;;;;-144.05;65.72;57118.59;5072603;28;20025;-81
2024/01/08 03:43:02;;;;;;;10.30;6.78;;;;;;;-144.05;65.56;57116.47;5049843;28;20061;-81
2024/01/08 03:45:35;;;;;;;15.63;7.05;;;;;;;-144.05;65.86;57152.56;5067040;28;20082;-79
2024/01/08 03:48:01;;;;;;;10.85;6.70;;;;;;;-144.05;66.78;57135.56;5048097;28;20055;-81
2024/01/08 03:50:27;;;;;;;11.82;7.00;;;;;;;-144.05;66.10;57165.31;5050772;28;20109;-82
2024/01/08 03:52:53;;;;;;;9.00;5.97;;;;;;;-144.05;65.62;57135.56;5071110;28;20434;-83
2024/01/08 03:55:19;;;;;;;11.60;6.60;;;;;;;-144.05;65.67;57122.84;5053600;28;20055;-81
2024/01/08 03:57:46;;;;;;;10.65;6.95;;;;;;;-144.05;66.07;57118.59;5052074;28;20060;-80
2024/01/08 04:00:13;;;;;;;11.52;7.10;;;;;;;-144.05;66.25;57120.72;5052376;28;20041;-81
2024/01/08 04:02:43;;;;;;;14.23;7.53;;;-4.00;99.90;;;-144.05;66.08;57129.22;5051519;28;20421;-81
2024/01/08 04:05:11;;;;;;;11.55;6.70;;;;;;;-144.05;65.59;57154.69;5049964;28;20040;-80
2024/01/08 04:07:38;;;;;;;11.80;6.40;;;;;;;-144.05;65.67;57163.19;5050106;28;20068;-81
2024/01/08 04:10:05;;;;;;;11.88;7.22;;;;;;;-144.05;65.56;57148.31;5047645;28;20033;-82
2024/01/08 04:12:31;;;;;;;15.55;7.35;;;;;;;-144.05;65.71;57133.44;5051663;28;20052;-81
2024/01/08 04:14:57;;;;;;;12.00;6.70;;;;;;;-144.05;66.05;57144.06;5047140;28;20083;-80
2024/01/08 04:17:26;;;;;;;12.80;7.05;;;;;;;-144.05;65.45;57154.69;5047933;28;20032;-81
2024/01/08 04:19:52;;;;;;;12.25;6.75;;;;;;;-144.05;65.84;57146.19;5047022;28;20029;-81
2024/01/08 04:22:18;;;;;;;11.82;6.60;;;;;;;-144.05;66.02;57141.94;5049292;28;20071;-81
2024/01/08 04:24:44;;;;;;;11.38;7.13;;;;;;;-144.05;66.11;57122.84;5074960;28;20029;-81
2024/01/08 04:27:11;;;;;;;12.63;6.95;;;;;;;-144.05;65.75;57150.44;5056404;28;20056;-81
2024/01/08 04:29:37;;;;;;;11.07;7.22;;;;;;;-144.05;65.97;57156.81;5063307;28;20035;-81
2024/01/08 04:32:04;;;;;;;14.02;6.95;;;;;;;-144.05;65.72;57154.69;5058599;28;20102;-81
2024/01/08 04:34:30;;;;;;;11.00;7.03;;;;;;;-144.05;65.56;57122.84;5065867;28;20116;-82
2024/01/08 04:36:56;;;;;;;18.55;8.30;;;;;;;-144.05;65.87;57141.94;5056482;28;20032;-80
2024/01/08 04:39:23;;;;;;;12.90;7.10;;;;;;;-144.05;65.54;57124.97;5052555;28;20039;-81
2024/01/08 04:41:49;;;;;;;13.23;7.00;;;;;;;-144.05;65.58;57161.06;5055655;28;20025;-80
2024/01/08 04:44:15;;;;;;;14.48;7.38;;;;;;;-144.05;66.14;57146.19;5058246;28;20036;-80
2024/01/08 04:46:45;;;;;;;13.52;7.75;;;;;;;-144.05;65.92;57112.22;5055934;28;20035;-82
2024/01/08 04:49:11;;;;;;;13.45;7.70;;;;;;;-144.05;65.54;57110.09;5062527;28;20033;-79
2024/01/08 04:51:37;;;;;;;12.88;7.75;;;;;;;-144.05;65.62;57124.97;5057097;28;20323;-82
2024/01/08 04:54:05;;;;;;;14.35;7.55;;;-3.50;99.90;;;-144.05;65.55;57131.31;5056660;28;20056;-78
2024/01/08 04:56:43;;;;;;;14.30;7.32;;;;;;;-144.05;65.66;57120.72;5055105;28;20352;-81
2024/01/08 04:59:09;;;;;;;13.48;7.60;;;;;;;-144.05;65.35;57129.22;5056393;28;20064;-82
2024/01/08 05:01:38;;;;;;;12.25;7.28;;;;;;;-144.05;66.12;57114.34;5055279;28;20024;-82
2024/01/08 05:04:05;;;;;;;15.57;7.72;;;;;;;-144.05;65.71;57122.84;5052496;28;20039;-82
2024/01/08 05:06:31;;;;;;;11.90;6.97;;;;;;;-144.05;65.63;57112.22;5057118;28;20025;-82
2024/01/08 05:08:57;;;;;;;15.23;7.40;;;;;;;-144.05;65.67;57101.59;5056576;28;20081;-79
2024/01/08 05:11:24;;;;;;;12.82;7.70;;;;;;;-144.05;65.62;57148.31;5049616;28;20029;-82
2024/01/08 05:13:50;;;;;;;12.48;7.47;;;;;;;-144.05;65.50;57148.31;5057531;28;20110;-82
2024/01/08 05:16:16;;;;;;;13.25;7.47;;;;;;;-144.05;65.33;57148.31;5058046;28;20496;-81
2024/01/08 05:18:42;;;;;;;12.68;7.80;;;;;;;-144.05;65.83;57144.06;5057113;28;20129;-82
2024/01/08 05:21:15;;;;;;;11.73;7.35;;;-3.50;99.90;;;-144.05;65.48;57135.56;5061873;28;20071;-79
2024/01/08 05:23:42;;;;;;;12.20;7.68;;;;;;;-144.05;65.89;57105.84;5051617;28;20028;-80
2024/01/08 05:26:08;;;;;;;14.50;7.90;;;;;;;-144.05;65.38;57110.09;5069442;28;20051;-83
2024/01/08 05:28:34;;;;;;;12.68;7.30;;;;;;;-144.05;65.20;57122.84;5056799;28;20044;-79
2024/01/08 05:31:01;;;;;;;12.60;7.32;;;;;;;-144.05;65.41;57124.97;5055634;28;20033;-80
2024/01/08 05:33:27;;;;;;;12.63;7.43;;;;;;;-144.05;65.41;57161.06;5060427;28;20466;-82
2024/01/08 05:35:56;;;;;;;15.13;8.13;;;;;;;-144.05;66.25;57131.31;5052975;28;20153;-79
2024/01/08 05:38:24;;;;;;;12.73;6.93;;;;;;;-144.05;65.65;57099.47;5053576;28;20058;-81
2024/01/08 05:40:50;;;;;;;11.00;7.22;;;;;;;-144.05;65.87;57169.56;5051426;28;20087;-80
2024/01/08 05:43:17;;;;;;;13.10;7.50;;;;;;;-144.05;65.53;57105.84;5073212;28;20036;-81
2024/01/08 05:45:43;;;;;;;14.02;7.82;;;;;;;-144.05;65.75;57122.84;5056915;28;20033;-82
2024/01/08 05:48:10;;;;;;;17.35;7.63;;;;;;;-144.05;65.91;57141.94;5056682;28;20048;-83
2024/01/08 05:50:36;;;;;;;13.13;8.20;;;;;;;-144.05;65.94;57124.97;5076386;28;20032;-80
2024/01/08 05:53:03;;;;;;;12.95;7.97;;;;;;;-144.05;65.86;57141.94;5059767;28;20029;-81
2024/01/08 05:55:29;;;;;;;13.55;7.78;;;;;;;-144.05;65.81;57154.69;5056444;28;20029;-82
2024/01/08 05:58:03;;;;;;;16.33;8.27;;;;;;;-144.05;66.04;57124.97;5059612;28;20090;-81
2024/01/08 06:00:29;;;;;;;12.05;7.70;;;;;;;-144.05;66.02;57116.47;5059422;28;20072;-82
2024/01/08 06:02:55;;;;;;;15.02;7.95;;;;;;;-144.05;66.11;57131.31;5055907;28;20033;-82
2024/01/08 06:05:22;;;;;;;13.15;7.75;;;;;;;-144.05;65.84;57144.06;5058401;28;20128;-81
2024/01/08 06:07:52;;;;;;;14.18;8.50;;;;;;;-144.05;66.46;57088.84;5057670;28;20051;-81
2024/01/08 06:10:19;;;;;;;13.75;7.38;;;;;;;-144.05;66.10;57114.34;5058103;28;20037;-81
2024/01/08 06:12:45;;;;;;;12.93;7.68;;;;;;;-144.05;66.24;57124.97;5056567;28;20032;-80
2024/01/08 06:15:12;;;;;;;14.23;7.68;;;;;;;-144.05;66.46;57129.22;5069297;28;20036;-83
2024/01/08 06:17:38;;;;;;;14.23;8.05;;;;;;;-144.05;66.33;57163.19;5057275;28;20029;-80
2024/01/08 06:20:05;;;;;;;12.27;6.85;;;;;;;-144.05;66.44;57127.09;5075983;28;20025;-83
2024/01/08 06:22:31;;;;;;;11.05;6.82;;;;;;;-144.05;65.55;57120.72;5055785;28;20043;-82
2024/01/08 06:24:58;;;;;;;11.02;6.72;;;;;;;-144.05;65.10;57150.44;5056214;28;20036;-81
2024/01/08 06:27:24;;;;;;;11.73;6.78;;;;;;;-144.05;65.73;57163.19;5049632;28;21176;-83
2024/01/08 06:29:50;;;;;;;13.60;7.28;;;;;;;-144.05;65.06;57107.97;5055744;28;20048;-81
2024/01/08 06:32:16;;;;;;;12.82;7.18;;;;;;;-144.05;65.15;57161.06;5076299;28;20140;-79
2024/01/08 06:34:43;;;;;;;10.85;5.90;;;;;;;-144.05;64.43;57150.44;5055809;28;20025;-78
2024/01/08 06:37:09;;;;;;;9.30;6.10;;;;;;;-144.05;63.66;57112.22;5060808;28;20087;-79
2024/01/08 06:39:35;;;;;;;9.75;5.68;;;;;;;-144.05;62.99;57135.56;5054801;28;20100;-80
2024/01/08 06:42:02;;;;;;;12.82;5.32;;;;;;;-144.05;63.14;57131.31;5072092;28;20043;-80
2024/01/08 06:44:28;;;;;;;8.95;5.85;;;;;;;-144.05;62.53;57116.47;5072180;28;20032;-77
2024/01/08 06:46:55;;;;;;;9.60;5.13;;;;;;;-144.05;62.72;57122.84;5057481;28;20033;-80
2024/01/08 06:49:22;;;;;;;8.55;5.18;;;;;;;-144.05;62.33;57141.94;5058313;28;20391;-83
2024/01/08 06:51:49;;;;;;;8.43;5.40;;;;;;;-144.05;62.73;57146.19;5066185;28;20201;-83
2024/01/08 06:54:15;;;;;;;9.20;5.05;;;;;;;-144.05;62.54;57067.59;5063905;28;20425;-81
2024/01/08 06:56:54;;;;;;;8.32;5.10;;;;;;;-144.05;62.15;57090.97;5066533;28;20056;-81
2024/01/08 06:59:39;;;;;;;8.73;5.63;;;-3.90;99.90;;;-144.05;62.63;57167.44;5066872;28;20068;-81
2024/01/08 07:02:27;;;;;;;9.00;5.55;;;1.20;99.90;;;-144.05;62.89;57110.09;5063078;28;20041;-81
2024/01/08 07:04:56;;;;;;;9.45;5.50;;;;;;;-144.05;62.23;57110.09;5046329;28;20047;-79
2024/01/08 07:07:28;;;;;;;9.18;5.40;;;;;;;-144.05;62.47;57150.44;5092295;28;20029;-79
2024/01/08 07:09:54;;;;;;;11.43;6.00;;;;;;;-144.05;62.58;57129.22;5059623;28;20024;-79
2024/01/08 07:12:22;;;;;;;8.63;5.55;;;;;;;-144.05;63.57;57101.59;5057074;28;20724;-80
2024/01/08 07:14:48;;;;;;;12.15;6.55;;;;;;;-144.05;64.67;57150.44;5056112;28;20043;-80
2024/01/08 07:17:14;;;;;;;11.45;5.95;;;;;;;-144.05;63.77;57120.72;5055044;28;20079;-81
2024/01/08 07:19:40;;;;;;;9.13;5.28;;;;;;;-144.05;64.04;57139.81;5057552;28;20518;-79
2024/01/08 07:22:12;;;;;;;10.85;5.90;;;;;;;-144.05;63.61;57112.22;5053667;28;20466;-81
2024/01/08 07:24:38;;;;;;;9.02;5.93;;;;;;;-144.05;63.43;57154.69;5053044;28;20041;-82
2024/01/08 07:27:04;;;;;;;13.50;6.40;;;;;;;-144.05;64.10;57124.97;5052603;28;20103;-79
2024/01/08 07:29:31;;;;;;;10.45;6.68;;;;;;;-144.05;63.94;57148.31;5052863;28;20048;-81
2024/01/08 07:31:58;;;;;;;9.88;6.15;;;;;;;-144.05;63.92;57103.72;5054245;28;20090;-81
2024/01/08 07:34:24;;;;;;;10.63;6.10;;;;;;;-144.05;63.96;57103.72;5053142;28;20061;-79
2024/01/08 07:36:50;;;;;;;11.15;5.95;;;;;;;-144.05;64.35;57120.72;5051996;28;20048;-82
2024/01/08 07:39:17;;;;;;;11.30;6.68;;;;;;;-144.05;64.05;57118.59;5052462;28;20140;-80
2024/01/08 07:41:45;;;;;;;9.70;6.05;;;;;;;-144.05;64.24;57107.97;5053088;28;20465;-78
2024/01/08 07:44:11;;;;;;;12.90;6.55;;;;;;;-144.05;63.98;57110.09;5069411;28;20029;-76
2024/01/08 07:46:38;;;;;;;11.10;6.75;;;1.60;99.90;;;-144.05;64.83;57163.19;5078649;28;20033;-80
2024/01/08 07:49:04;;;;;;;11.27;6.93;;;;;;;-144.05;64.72;57127.09;5071003;28;20028;-78
2024/01/08 07:51:31;;;;;;;10.77;5.97;;;;;;;-144.05;64.18;57161.06;5052397;28;20119;-82
2024/01/08 07:53:57;;;;;;;11.93;6.97;;;;;;;-144.05;64.72;57110.09;5052821;28;20029;-78
2024/01/08 07:56:26;;;;;;;12.07;6.35;;;1.30;99.90;;;-144.05;65.29;57163.19;5054380;28;20040;-80
2024/01/08 07:58:53;;;;;;;11.40;5.88;;;;;;;-144.05;64.70;57090.97;5070104;28;20123;-80
2024/01/08 08:01:28;;;;;;;11.50;6.32;;;-2.70;99.90;;;-144.05;64.96;57107.97;5053758;28;20387;-77
2024/01/08 08:03:55;;;;;;;10.30;6.57;;;;;;;-144.05;64.33;57122.84;5070568;28;20603;-78
2024/01/08 08:06:22;;;;;;;14.55;6.63;;;;;;;-144.05;64.79;57144.06;5056715;28;20086;-79
2024/01/08 08:08:49;;;;;;;9.90;6.07;;;;;;;-144.05;64.84;57124.97;5082368;28;20040;-80
2024/01/08 08:11:16;;;;;;;10.43;6.03;;;;;;;-144.05;65.01;57139.81;5050409;28;20031;-80
2024/01/08 08:13:46;;;;;;;10.40;6.70;;;;;;;-144.05;64.92;57133.44;5068728;28;20043;-79
2024/01/08 08:16:12;;;;;;;13.07;6.45;;;;;;;-144.05;64.55;57099.47;5059189;28;20055;-80
2024/01/08 08:18:39;;;;;;;9.95;6.10;;;;;;;-144.05;64.74;57099.47;5075472;28;20501;-80
2024/01/08 08:21:05;;;;;;;10.70;5.93;;;;;;;-144.05;65.33;57133.44;5056529;28;20026;-81
2024/01/08 08:23:33;;;;;;;11.43;6.10;;;;;;;-144.05;64.91;57112.22;5060111;28;20025;-81
2024/01/08 08:25:59;;;;;;;9.40;6.15;;;;;;;-144.05;65.17;57141.94;5057316;28;20029;-80
2024/01/08 08:28:25;;;;;;;12.80;6.28;;;;;;;-144.05;64.92;57137.69;5057620;28;20029;-79
2024/01/08 08:30:52;;;;;;;12.85;6.18;;;;;;;-144.05;64.47;57093.09;5072974;28;20120;-80
2024/01/08 08:33:21;;;;;;;11.77;6.18;;;-3.20;99.90;;;-144.05;64.36;57116.47;5056675;28;20124;-79
2024/01/08 08:35:47;;;;;;;10.15;6.25;;;;;;;-144.05;64.53;57082.47;5074033;28;20123;-81
2024/01/08 08:38:14;;;;;;;10.55;6.05;;;;;;;-144.05;64.14;57124.97;5057455;28;20056;-80
2024/01/08 08:40:40;;;;;;;8.05;5.45;;;;;;;-144.05;63.43;57110.09;5057697;28;20077;-81
2024/01/08 08:43:06;;;;;;;7.60;4.78;;;;;;;-144.05;62.28;57112.22;5053666;28;20053;-80
2024/01/08 08:45:33;;;;;;;8.82;4.65;;;;;;;-144.05;60.31;57116.47;5046777;28;20047;-83
2024/01/08 08:47:59;;;;;;;6.53;3.97;;;;;;;-144.05;59.01;57107.97;5061949;28;20110;-81
2024/01/08 08:50:25;;;;;;;8.45;4.03;;;;;;;-144.05;55.91;57165.31;5058633;28;20108;-79
2024/01/08 08:52:51;;;;;;;8.48;3.65;;;;;;;-144.05;55.53;57120.72;5057541;28;20088;-79
2024/01/08 08:55:18;;;;;;;5.18;3.28;;;;;;;-144.05;54.07;57161.06;5056398;28;20033;-82
2024/01/08 08:57:44;;;;;;;8.65;3.10;;;;;;;-144.05;53.57;57129.22;5058486;28;20076;-79
2024/01/08 09:00:11;;;;;;;5.35;3.05;;;;;;;-144.05;53.50;57112.22;5060765;28;20030;-79
2024/01/08 09:02:37;;;;;;;6.32;3.63;;;;;;;-144.05;52.26;57150.44;5056737;28;20095;-80
2024/01/08 09:05:07;;;;;;;6.05;3.47;;;;;;;-144.05;51.63;57107.97;5058226;28;20048;-80
2024/01/08 09:07:34;;;;;;;5.95;3.47;;;;;;;-144.05;51.20;57144.06;5058042;28;20028;-80
2024/01/08 09:10:01;;;;;;;6.32;3.55;;;;;;;-144.05;51.13;57171.69;5056667;28;20021;-81
2024/01/08 09:12:27;;;;;;;6.32;3.17;;;;;;;-144.05;50.62;57107.97;5072399;28;20032;-82
2024/01/08 09:14:54;;;;;;;6.05;2.88;;;;;;;-144.05;49.85;57095.22;5056576;28;20441;-80
2024/01/08 09:17:20;;;;;;;7.28;3.75;;;;;;;-144.05;49.38;57095.22;5054082;28;20483;-81
2024/01/08 09:19:49;;;;;;;5.47;2.85;;;;;;;-144.05;48.88;57116.47;5057879;28;20032;-79
2024/01/08 09:22:15;;;;;;;5.35;2.72;;;;;;;-144.05;47.71;57101.59;5069797;28;20574;-80
2024/01/08 09:24:48;;;;;;;6.78;3.30;;;;;;;-144.05;47.95;57129.22;5058689;28;20029;-81
2024/01/08 09:27:14;;;;;;;6.78;3.33;;;;;;;-144.05;47.38;57103.72;5058099;28;20537;-81
2024/01/08 09:29:40;;;;;;;6.65;2.95;;;;;;;-144.05;45.08;57122.84;5062777;28;20128;-82
2024/01/08 09:32:06;;;;;;;7.18;3.00;;;;;;;-144.05;43.63;57086.72;5046370;28;20124;-82
2024/01/08 09:34:43;;;;;;;6.75;2.97;;;;;;;-144.05;42.48;57116.47;5049319;28;20443;-80
2024/01/08 09:37:10;;;;;;;4.80;2.47;;;;;;;-144.05;39.52;57124.97;5073719;28;20037;-80
2024/01/08 09:39:36;;;;;;;6.57;2.35;;;;;;;-144.05;38.10;57116.47;5057195;28;20021;-79
2024/01/08 09:42:12;;;;;;;4.32;2.55;;;;;;;-144.05;38.51;57127.09;5079222;28;20132;-80
2024/01/08 09:44:44;;;;;;;6.53;3.08;;;;;;;-144.05;38.50;57105.84;5057426;28;20393;-82
2024/01/08 09:47:12;;;;;;;7.43;2.60;;;;;;;-144.05;38.11;57110.09;5065060;28;20402;-80
2024/01/08 09:49:40;;;;;;;5.25;2.58;;;;;;;-144.05;37.99;57114.34;5054866;28;20025;-80
2024/01/08 09:52:08;;;;;;;6.95;3.40;;;;;;;-144.05;38.96;57152.56;5071206;28;20036;-84
2024/01/08 09:54:38;;;;;;;5.90;2.58;;;0.80;99.90;;;-144.05;40.00;57129.22;5080711;28;20409;-81
2024/01/08 09:57:04;;;;;;;10.27;2.83;;;1.30;99.90;;;-144.05;39.30;57107.97;5083379;28;20033;-82
2024/01/08 09:59:32;;;;;;;5.43;3.05;;;;;;;-144.05;40.69;57124.97;5061421;28;20027;-82
2024/01/08 10:01:58;;;;;;;4.35;3.03;;;;;;;-144.05;39.78;57129.22;5055938;28;20116;-81
2024/01/08 10:04:25;;;;;;;7.30;2.88;;;;;;;-144.05;40.43;57133.44;5048200;28;20120;-79
2024/01/08 10:07:12;;;;;;;8.85;3.58;;;1.70;99.90;;;-144.05;39.85;57137.69;5060277;28;20378;-79
2024/01/08 10:09:39;;;;;;;7.68;3.95;;;;;;;-144.05;39.67;57112.22;5075804;28;20052;-82
2024/01/08 10:12:16;;;;;;;5.85;3.22;;;;;;;-144.05;39.85;57133.44;5074141;28;20083;-81
2024/01/08 10:14:42;;;;;;;5.50;2.90;;;;;;;-144.05;39.85;57086.72;5067723;28;20044;-82
2024/01/08 10:17:20;;;;;;;5.75;3.45;;;;;;;-144.05;39.08;57129.22;5060187;28;20029;-80
2024/01/08 10:19:47;;;;;;;8.40;2.95;;;;;;;-144.05;39.38;57110.09;5068207;28;20158;-80
2024/01/08 10:22:15;;;;;;;5.50;2.97;;;;;;;-144.05;39.22;57110.09;5060927;28;20097;-83
2024/01/08 10:24:43;;;;;;;6.88;3.15;;;;;;;-144.05;38.79;57086.72;5052742;28;20035;-82
2024/01/08 10:27:19;;;;;;;6.40;3.72;;;;;;;-144.05;39.21;57048.50;5055558;28;20021;-81
2024/01/08 10:29:45;;;;;;;;;;;1.80;99.90;;;-144.05;38.51;57099.47;5042227;28;20029;-80
2024/01/08 10:32:12;;;;;;;6.88;3.30;;;;;;;-144.05;38.58;57124.97;5058066;28;20015;-79
2024/01/08 10:34:42;;;;;;;8.18;3.60;;;-2.90;99.90;;;-144.05;38.33;57112.22;5058784;28;20036;-80
2024/01/08 10:37:11;;;;;;;8.30;3.58;;;;;;;-144.05;38.55;57065.47;5060905;28;20082;-81
2024/01/08 10:39:39;;;;;;;7.65;3.70;;;;;;;-144.05;39.15;57107.97;5058668;28;20680;-81
2024/01/08 10:42:05;;;;;;;5.88;3.47;;;;;;;-144.05;39.25;57129.22;5053746;28;20075;-83
2024/01/08 10:44:38;;;;;;;6.75;3.78;;;;;;;-144.05;39.39;57082.47;5056130;28;20124;-80
2024/01/08 10:47:09;;;;;;;5.78;2.95;;;;;;;-144.05;39.33;57146.19;5058085;28;20038;-83
2024/01/08 10:49:36;;;;;;;5.70;3.08;;;;;;;-144.05;39.09;57116.47;5058208;28;20028;-81
2024/01/08 10:52:28;;;;;;;5.47;3.28;;;;;;;-144.05;39.10;57103.72;5062445;28;20048;-84
2024/01/08 10:54:58;;;;;;;6.88;3.60;;;;;;;-144.05;38.05;57084.59;5051332;28;20032;-79
2024/01/08 10:58:04;;;;;;;5.00;2.50;;;1.90;99.90;;;-144.05;37.92;57122.84;5058153;28;20036;-80
2024/01/08 11:00:33;;;;;;;5.78;3.17;;;-2.90;99.90;;;-144.05;37.40;57112.22;5058772;28;20021;-82
2024/01/08 11:03:00;;;;;;;5.20;2.80;;;;;;;-144.05;38.25;57095.22;5087944;28;20029;-83
2024/01/08 11:05:32;;;;;;;4.32;3.03;;;;;;;-144.05;37.36;57124.97;5056681;28;20024;-80
2024/01/08 11:08:03;;;;;;;6.13;3.03;;;;;;;-144.05;37.18;57099.47;5057706;28;20020;-81